createdAt,value
2022-12-06T00:02:10.577Z,18.48
2022-12-06T00:04:37.100Z,17.90
2022-12-06T00:07:03.663Z,19.08
2022-12-06T00:09:32.092Z,30.95
2022-12-06T00:11:58.695Z,24.83
2022-12-06T00:14:25.686Z,25.75
2022-12-06T00:16:52.487Z,25.70
2022-12-06T00:19:20.093Z,28.05
2022-12-06T00:21:47.407Z,25.45
2022-12-06T00:24:15.682Z,21.88
2022-12-06T00:26:43.496Z,24.80
2022-12-06T00:29:14.622Z,15.05
2022-12-06T00:31:41.287Z,19.67
2022-12-06T00:34:07.751Z,16.92
2022-12-06T00:36:35.294Z,19.77
2022-12-06T00:39:02.901Z,17.10
2022-12-06T00:41:29.613Z,17.60
2022-12-06T00:43:56.071Z,17.00
2022-12-06T00:46:23.897Z,17.95
2022-12-06T00:48:50.944Z,16.30
2022-12-06T00:51:18.000Z,14.57
2022-12-06T00:53:45.065Z,15.65
2022-12-06T00:56:11.612Z,19.55
2022-12-06T00:58:38.106Z,15.27
2022-12-06T01:01:11.596Z,15.82
2022-12-06T01:03:38.400Z,17.17
2022-12-06T01:06:06.308Z,17.90
2022-12-06T01:08:32.898Z,17.25
2022-12-06T01:10:59.574Z,14.30
2022-12-06T01:13:25.988Z,16.08
2022-12-06T01:15:54.227Z,13.65
2022-12-06T01:18:21.362Z,14.50
2022-12-06T01:20:47.855Z,18.13
2022-12-06T01:23:14.648Z,17.30
2022-12-06T01:25:49.435Z,16.45
2022-12-06T01:28:15.901Z,14.57
2022-12-06T01:30:42.419Z,18.30
2022-12-06T01:33:08.951Z,11.85
2022-12-06T01:35:39.236Z,15.75
2022-12-06T01:38:06.378Z,13.23
2022-12-06T01:40:39.855Z,14.60
2022-12-06T01:43:07.011Z,16.50
2022-12-06T01:45:33.515Z,12.05
2022-12-06T01:48:00.101Z,13.55
2022-12-06T01:50:29.352Z,13.82
2022-12-06T01:52:55.771Z,17.45
2022-12-06T01:55:23.104Z,13.07
2022-12-06T01:57:51.420Z,12.57
2022-12-06T02:00:18.091Z,13.70
2022-12-06T02:02:44.641Z,16.30
2022-12-06T02:05:11.643Z,11.93
2022-12-06T02:07:38.678Z,16.85
2022-12-06T02:10:05.593Z,15.85
2022-12-06T02:12:32.067Z,14.70
2022-12-06T02:14:59.709Z,23.08
2022-12-06T02:17:47.467Z,14.05
2022-12-06T02:20:19.159Z,15.80
2022-12-06T02:22:45.562Z,12.50
2022-12-06T02:25:34.055Z,12.75
2022-12-06T02:28:00.787Z,16.73
2022-12-06T02:30:46.128Z,15.77
2022-12-06T02:33:15.443Z,13.30
2022-12-06T02:35:47.452Z,20.83
2022-12-06T02:38:16.480Z,13.35
2022-12-06T02:40:46.041Z,16.65
2022-12-06T02:43:14.829Z,11.80
2022-12-06T02:45:44.484Z,15.23
2022-12-06T02:48:12.745Z,13.10
2022-12-06T02:50:45.345Z,15.23
2022-12-06T02:53:13.684Z,12.70
2022-12-06T02:55:41.325Z,16.20
2022-12-06T02:58:07.823Z,13.10
2022-12-06T03:00:36.628Z,11.70
2022-12-06T03:03:05.874Z,15.40
2022-12-06T03:05:36.051Z,16.58
2022-12-06T03:08:05.225Z,17.33
2022-12-06T03:10:41.081Z,12.73
2022-12-06T03:13:16.921Z,13.77
2022-12-06T03:15:47.428Z,17.35
2022-12-06T03:18:34.170Z,12.63
2022-12-06T03:21:06.630Z,12.52
2022-12-06T03:23:36.926Z,14.32
2022-12-06T03:26:05.429Z,20.10
2022-12-06T03:28:32.103Z,14.88
2022-12-06T03:31:01.324Z,18.00
2022-12-06T03:33:28.756Z,14.02
2022-12-06T03:35:56.518Z,16.30
2022-12-06T03:38:29.498Z,17.00
2022-12-06T03:40:57.203Z,15.35
2022-12-06T03:43:23.685Z,12.00
2022-12-06T03:45:56.816Z,13.35
2022-12-06T03:48:27.267Z,11.63
2022-12-06T03:51:04.713Z,17.50
2022-12-06T03:53:31.666Z,13.40
2022-12-06T03:55:58.146Z,14.27
2022-12-06T03:58:24.641Z,15.05
2022-12-06T04:00:51.121Z,14.18
2022-12-06T04:03:17.690Z,16.75
2022-12-06T04:05:44.263Z,19.13
2022-12-06T04:08:10.763Z,13.82
2022-12-06T04:10:37.261Z,13.70
2022-12-06T04:13:05.926Z,15.77
2022-12-06T04:15:34.350Z,17.70
2022-12-06T04:18:16.192Z,17.45
2022-12-06T04:21:04.619Z,13.85
2022-12-06T04:23:32.238Z,15.18
2022-12-06T04:25:58.676Z,20.40
2022-12-06T04:28:43.610Z,17.33
2022-12-06T04:31:29.077Z,15.95
2022-12-06T04:34:13.872Z,12.82
2022-12-06T04:36:58.793Z,16.77
2022-12-06T04:39:25.403Z,15.18
2022-12-06T04:42:30.473Z,19.30
2022-12-06T04:44:56.906Z,18.60
2022-12-06T04:47:23.692Z,16.85
2022-12-06T04:49:50.513Z,19.23
2022-12-06T04:52:17.260Z,16.08
2022-12-06T04:54:43.671Z,16.92
2022-12-06T04:57:13.767Z,16.48
2022-12-06T04:59:41.520Z,18.83
2022-12-06T05:02:10.144Z,16.83
2022-12-06T05:04:36.629Z,17.02
2022-12-06T05:07:03.284Z,18.42
2022-12-06T05:09:29.742Z,18.02
2022-12-06T05:11:56.192Z,19.08
2022-12-06T05:14:22.892Z,18.25
2022-12-06T05:16:49.422Z,17.50
2022-12-06T05:19:16.296Z,15.05
2022-12-06T05:21:42.758Z,16.35
2022-12-06T05:24:09.211Z,18.10
2022-12-06T05:26:35.632Z,16.67
2022-12-06T05:29:02.134Z,16.30
2022-12-06T05:31:28.686Z,15.13
2022-12-06T05:33:55.201Z,16.08
2022-12-06T05:36:27.095Z,15.05
2022-12-06T05:41:20.836Z,20.52
2022-12-06T05:43:47.473Z,20.58
2022-12-06T05:46:14.068Z,21.90
2022-12-06T05:48:40.633Z,20.08
2022-12-06T05:51:07.084Z,16.17
2022-12-06T05:53:33.568Z,22.98
2022-12-06T05:56:10.488Z,19.95
2022-12-06T05:58:37.275Z,19.42
2022-12-06T06:01:04.958Z,23.85
2022-12-06T06:03:31.516Z,23.02
2022-12-06T06:05:59.227Z,22.05
2022-12-06T06:08:26.348Z,22.13
2022-12-06T06:10:52.746Z,21.02
2022-12-06T06:13:19.256Z,16.38
2022-12-06T06:15:45.791Z,19.05
2022-12-06T06:18:12.234Z,20.63
2022-12-06T06:20:38.736Z,26.23
2022-12-06T06:23:05.181Z,19.40
2022-12-06T06:25:31.646Z,21.48
2022-12-06T06:27:58.035Z,25.98
2022-12-06T06:30:24.476Z,20.30
2022-12-06T06:32:50.959Z,21.08
2022-12-06T06:35:17.554Z,24.75
2022-12-06T06:37:44.012Z,23.83
2022-12-06T06:40:11.457Z,20.63
2022-12-06T06:42:38.243Z,19.73
2022-12-06T06:45:04.914Z,26.08
2022-12-06T06:47:31.397Z,28.20
2022-12-06T06:49:57.963Z,23.13
2022-12-06T06:52:24.525Z,26.85
2022-12-06T06:54:51.004Z,22.83
2022-12-06T06:57:18.493Z,25.23
2022-12-06T06:59:45.686Z,23.58
2022-12-06T07:02:13.127Z,21.58
2022-12-06T07:04:39.627Z,23.30
2022-12-06T07:07:06.054Z,24.83
2022-12-06T07:09:32.645Z,22.52
2022-12-06T07:11:59.076Z,27.13
2022-12-06T07:14:25.506Z,25.20
2022-12-06T07:16:52.106Z,21.92
2022-12-06T07:19:18.725Z,26.77
2022-12-06T07:21:45.121Z,27.42
2022-12-06T07:24:11.547Z,24.00
2022-12-06T07:26:38.043Z,25.33
2022-12-06T07:29:04.570Z,23.50
2022-12-06T07:31:31.260Z,26.45
2022-12-06T07:33:58.833Z,31.70
2022-12-06T07:36:26.131Z,26.02
2022-12-06T07:38:53.962Z,26.50
2022-12-06T07:41:40.184Z,30.25
2022-12-06T07:44:25.013Z,22.05
2022-12-06T07:46:51.411Z,29.60
2022-12-06T07:49:18.409Z,30.23
2022-12-06T15:18:10.408Z,54.50
2022-12-06T15:20:37.019Z,61.08
2022-12-06T15:23:19.603Z,49.97
2022-12-06T15:25:46.050Z,59.55
2022-12-06T15:28:16.959Z,51.42
2022-12-06T15:30:46.228Z,60.38
2022-12-06T15:33:23.822Z,57.05
2022-12-06T15:35:50.915Z,53.45
2022-12-06T15:38:18.718Z,65.35
2022-12-06T15:40:47.471Z,62.75
2022-12-06T15:43:21.539Z,59.55
2022-12-06T15:45:47.945Z,62.47
2022-12-06T15:48:15.144Z,61.05
2022-12-06T15:50:41.591Z,66.07
2022-12-06T15:53:11.134Z,64.75
2022-12-06T15:55:37.545Z,68.15
2022-12-06T15:58:10.815Z,70.97
2022-12-06T16:00:37.286Z,56.15
2022-12-06T16:03:03.846Z,53.17
2022-12-06T16:05:31.058Z,57.55
2022-12-06T16:07:58.337Z,52.03
2022-12-06T16:10:42.466Z,57.13
2022-12-06T16:13:22.282Z,53.58
2022-12-06T16:15:52.187Z,59.35
2022-12-06T16:18:20.465Z,54.42
2022-12-06T16:20:46.957Z,59.70
2022-12-06T16:24:12.524Z,55.92
2022-12-06T16:26:35.254Z,51.90
2022-12-06T16:29:06.504Z,50.15
2022-12-06T16:31:36.488Z,46.25
2022-12-06T16:34:05.870Z,48.03
2022-12-06T16:36:32.690Z,46.92
2022-12-06T16:39:00.737Z,54.00
2022-12-06T16:41:36.474Z,54.67
2022-12-06T16:44:03.721Z,58.13
2022-12-06T16:46:34.146Z,65.03
2022-12-06T16:49:16.128Z,62.45
2022-12-06T16:51:48.521Z,65.90
2022-12-06T16:54:16.206Z,68.95
2022-12-06T16:56:42.692Z,74.53
2022-12-06T16:59:15.469Z,76.57
2022-12-06T17:01:49.285Z,67.65
2022-12-06T23:06:11.577Z,79.55
2022-12-06T23:08:38.717Z,78.13
2022-12-06T23:11:07.025Z,74.78
2022-12-06T23:13:33.726Z,81.05
2022-12-06T23:16:01.809Z,80.20
2022-12-06T23:18:29.938Z,77.00
2022-12-06T23:21:03.024Z,85.32
2022-12-06T23:23:29.755Z,80.90
2022-12-06T23:25:56.223Z,84.03
2022-12-06T23:28:24.082Z,81.93
2022-12-06T23:30:50.519Z,79.68
2022-12-06T23:33:22.518Z,78.55
2022-12-06T23:35:49.328Z,79.38
2022-12-06T23:38:15.737Z,86.15
2022-12-06T23:40:42.134Z,79.47
2022-12-06T23:43:08.558Z,79.68
2022-12-06T23:45:35.100Z,91.68
2022-12-06T23:48:01.651Z,95.90
2022-12-06T23:50:28.137Z,95.95
2022-12-06T23:52:54.577Z,82.30
2022-12-06T23:55:21.026Z,93.35
2022-12-06T23:57:47.466Z,89.45
